Time;durP1;ratioP1;P1;durP2;ratioP2;P2;SDS_P1;SDS_P2;PMS_P1;PMS_P2;Temp;Humidity;BMP_temperature;BMP_pressure;BME280_temperature;BME280_humidity;BME280_pressure;Samples;Min_cycle;Max_cycle;Signal;HPM_P1;HPM_P2
2021/11/08 00:01:03;;;;;;;26.73;16.20;;;;;;;8.72;72.68;101085.14;1758011;81;21011;-76
2021/11/08 00:03:33;;;;;;;22.93;15.90;;;;;;;8.69;72.77;101080.90;1758208;80;21134;-77
2021/11/08 00:06:03;;;;;;;20.65;15.15;;;;;;;8.68;72.84;101078.34;1757714;80;21556;-76
2021/11/08 00:08:31;;;;;;;20.90;15.65;;;;;;;8.68;72.82;101069.19;1758091;81;20857;-76
2021/11/08 00:10:58;;;;;;;19.23;14.93;;;;;;;8.68;72.79;101071.81;1758130;81;20857;-76
2021/11/08 00:13:26;;;;;;;25.25;17.10;;;;;;;8.66;72.70;101055.34;1757909;81;21046;-78
2021/11/08 00:16:12;;;;;;;24.35;16.25;;;;;;;8.66;72.71;101042.27;1757947;81;20884;-76
2021/11/08 00:21:04;;;;;;;22.05;15.35;;;;;;;8.62;72.62;101034.16;1757931;80;20885;-75
2021/11/08 00:23:31;;;;;;;22.40;15.98;;;;;;;8.58;72.67;101019.09;1758310;81;20896;-77
2021/11/08 00:25:59;;;;;;;24.37;15.20;;;;;;;8.57;72.80;101019.16;1757968;80;20975;-76
2021/11/08 00:28:27;;;;;;;21.35;14.87;;;;;;;8.55;72.92;101024.91;1757992;81;21378;-76
2021/11/08 00:30:55;;;;;;;22.37;14.33;;;;;;;8.55;73.08;101024.91;1757877;80;20884;-77
2021/11/08 00:33:23;;;;;;;19.42;15.08;;;;;;;8.57;73.11;101021.77;1757950;81;21401;-77
2021/11/08 00:35:56;;;;;;;21.93;15.45;;;;;;;8.58;73.15;101020.84;1757988;80;20995;-76
2021/11/08 00:38:24;;;;;;;20.23;16.10;;;;;;;8.59;73.09;101014.70;1758338;81;21592;-77
2021/11/08 00:40:52;;;;;;;20.70;16.37;;;;;;;8.60;73.15;101012.00;1758105;81;21209;-76
2021/11/08 00:43:18;;;;;;;22.67;15.25;;;;;;;8.63;73.16;101007.13;1758231;81;20888;-77
2021/11/08 00:45:46;;;;;;;20.35;15.38;;;;;;;8.64;73.18;101003.58;1757975;81;20864;-76
2021/11/08 00:48:14;;;;;;;22.10;15.65;;;;;;;8.62;73.27;100993.17;1745385;81;21490;-77
2021/11/08 00:50:42;;;;;;;23.22;15.68;;;;;;;8.61;73.42;100994.11;1744636;82;20853;-76
2021/11/08 00:53:10;;;;;;;19.62;15.53;;;;;;;8.63;73.57;100992.75;1744750;82;21960;-76
2021/11/08 00:55:39;;;;;;;23.12;15.10;;;;;;;8.62;73.67;100981.41;1744781;82;20924;-76
2021/11/08 00:58:07;;;;;;;21.33;14.20;;;;;;;8.66;73.71;100982.13;1744506;82;20980;-77
2021/11/08 01:00:34;;;;;;;18.48;15.25;;;;;;;8.67;73.68;100973.36;1744478;82;20968;-76
2021/11/08 01:03:05;;;;;;;21.73;17.27;;;;;;;8.67;73.62;100976.84;1744598;80;20972;-76
2021/11/08 01:05:30;;;;;;;22.93;16.87;;;;;;;8.67;73.65;100971.61;1744413;81;21148;-76
2021/11/08 01:07:57;;;;;;;19.60;14.98;;;;;;;8.68;73.61;100961.53;1744687;82;20901;-77
2021/11/08 01:10:25;;;;;;;21.65;15.85;;;;;;;8.69;73.58;100960.62;1744573;80;20971;-76
2021/11/08 01:12:52;;;;;;;23.02;17.20;;;;;;;8.68;73.59;100957.61;1744694;82;21441;-76
2021/11/08 01:15:20;;;;;;;23.83;16.67;;;;;;;8.66;73.70;100954.22;1744513;82;20979;-76
2021/11/08 01:17:47;;;;;;;20.92;16.40;;;;;;;8.66;73.82;100948.98;1744454;82;21050;-76
2021/11/08 01:20:16;;;;;;;24.50;14.83;;;;;;;8.68;73.99;100942.39;1744474;81;21402;-76
2021/11/08 01:22:43;;;;;;;18.85;15.08;;;;;;;8.69;74.07;100941.02;1744721;81;20932;-76
2021/11/08 01:25:11;;;;;;;16.85;14.40;;;;;;;8.71;74.21;100941.80;1744400;82;21485;-77
2021/11/08 01:27:42;;;;;;;22.22;14.85;;;;;;;8.74;74.33;100934.70;1744603;80;20845;-76
2021/11/08 01:30:16;;;;;;;20.35;16.48;;;;;;;8.79;74.39;100934.05;1744706;81;21767;-77
2021/11/08 01:32:53;;;;;;;21.77;17.02;;;;;;;8.81;74.41;100941.36;1744484;82;20929;-76
2021/11/08 01:35:14;;;;;;;20.48;16.12;;;;;;;8.84;74.47;100937.27;1744220;81;20980;-76
2021/11/08 01:37:49;;;;;;;20.57;16.10;;;;;;;8.83;74.51;100929.90;1744448;81;21597;-75
2021/11/08 01:40:11;;;;;;;21.95;16.97;;;;;;;8.83;74.55;100925.14;1744108;81;21008;-76
2021/11/08 01:42:38;;;;;;;21.40;16.97;;;;;;;8.83;74.70;100929.90;1744618;80;21163;-76
2021/11/08 01:45:06;;;;;;;20.72;16.60;;;;;;;8.84;74.83;100938.59;1744890;82;20846;-76
2021/11/08 01:47:32;;;;;;;27.35;16.65;;;;;;;8.85;75.00;100942.91;1751351;81;21019;-77
2021/11/08 01:49:59;;;;;;;22.22;15.98;;;;;;;8.85;75.16;100934.59;1757713;80;21445;-77
2021/11/08 01:52:27;;;;;;;20.30;15.25;;;;;;;8.87;75.27;100932.77;1757977;80;20873;-78
2021/11/08 01:54:53;;;;;;;18.05;14.78;;;;;;;8.88;75.36;100927.91;1757996;81;21079;-78
2021/11/08 01:57:20;;;;;;;19.37;14.58;;;;;;;8.91;75.54;100927.77;1758175;80;21018;-78
2021/11/08 01:59:47;;;;;;;19.55;16.00;;;;;;;8.95;75.81;100929.77;1758191;80;20887;-76
2021/11/08 02:02:14;;;;;;;23.02;16.85;;;;;;;8.96;76.19;100922.31;1757981;81;20916;-76
2021/11/08 02:04:41;;;;;;;21.12;15.65;;;;;;;8.98;76.52;100916.98;1758121;80;21353;-76
2021/11/08 02:07:09;;;;;;;20.90;16.12;;;;;;;8.98;76.99;100909.14;1758097;81;21157;-77
2021/11/08 02:09:36;;;;;;;24.90;17.80;;;;;;;8.97;77.12;100904.38;1757758;80;20877;-77
2021/11/08 02:12:07;;;;;;;22.70;16.00;;;;;;;8.99;77.60;100910.85;1757953;80;20900;-76
2021/11/08 02:14:37;;;;;;;27.15;18.32;;;;;;;8.99;77.95;100910.85;1717277;81;20971;-76
2021/11/08 02:17:05;;;;;;;22.05;16.80;;;;;;;8.99;78.40;100903.84;1741460;81;20956;-76
2021/11/08 02:19:34;;;;;;;25.75;16.32;;;;;;;8.99;78.58;100902.54;1757910;81;20897;-77
2021/11/08 02:22:03;;;;;;;23.73;18.15;;;;;;;8.98;78.85;100893.45;1758151;81;21417;-78
2021/11/08 02:24:31;;;;;;;22.05;17.30;;;;;;;8.98;78.94;100889.53;1757822;80;20936;-76
2021/11/08 02:26:57;;;;;;;24.25;17.87;;;;;;;8.99;79.19;100893.85;1758130;81;20892;-78
2021/11/08 02:29:24;;;;;;;23.38;17.37;;;;;;;8.97;79.31;100896.53;1758409;81;20971;-76
2021/11/08 02:31:52;;;;;;;20.05;16.73;;;;;;;8.98;79.40;100893.45;1757919;81;21531;-76
2021/11/08 02:34:19;;;;;;;25.35;19.05;;;;;;;9.00;79.56;100891.61;1757843;81;20940;-75
2021/11/08 02:36:46;;;;;;;24.60;17.92;;;;;;;8.98;79.75;100893.02;1758376;81;20852;-78
2021/11/08 02:39:19;;;;;;;22.67;18.45;;;;;;;8.99;80.01;100894.69;1757960;81;20924;-77
2021/11/08 02:41:42;;;;;;;26.50;18.17;;;;;;;8.97;80.24;100892.61;1757723;80;20994;-78
2021/11/08 02:44:09;;;;;;;24.25;19.27;;;;;;;8.96;80.39;100887.01;1757688;80;21419;-77
2021/11/08 02:46:40;;;;;;;23.50;18.48;;;;;;;8.96;80.55;100894.85;1757333;80;20960;-76
2021/11/08 02:49:08;;;;;;;25.17;17.85;;;;;;;8.98;80.75;100892.14;1757656;81;20999;-74
2021/11/08 02:51:36;;;;;;;25.68;18.40;;;;;;;8.98;81.17;100900.86;1757773;81;21007;-78
2021/11/08 02:54:13;;;;;;;26.85;18.95;;;;;;;8.96;81.44;100889.62;1757968;81;20932;-77
2021/11/08 02:56:32;;;;;;;31.23;19.45;;;;;;;8.95;81.70;100880.06;1738594;81;22078;-75
2021/11/08 02:59:01;;;;;;;24.05;18.40;;;;;;;8.95;82.11;100881.37;1759677;81;20901;-78
2021/11/08 03:01:28;;;;;;;22.70;18.65;;;;;;;8.91;82.53;100878.08;1758270;80;21296;-73
2021/11/08 03:04:00;;;;;;;24.15;18.32;;;;;;;8.94;82.60;100882.31;1758135;80;21411;-75
2021/11/08 03:06:33;;;;;;;20.92;17.70;;;;;;;8.93;82.72;100875.37;1757808;81;21347;-77
2021/11/08 03:09:21;;;;;;;22.03;17.93;;;;;;;8.94;82.91;100884.92;1758154;81;21151;-75
2021/11/08 03:11:45;;;;;;;23.05;18.55;;;;;;;8.97;82.97;100881.30;1756950;81;21358;-76
2021/11/08 03:14:18;;;;;;;22.98;17.95;;;;;;;8.99;83.16;100871.62;1757907;81;20940;-74
2021/11/08 03:16:47;;;;;;;26.75;18.42;;;;;;;8.98;83.30;100877.32;1756237;80;21429;-76
2021/11/08 03:19:34;;;;;;;23.73;17.82;;;;;;;9.01;83.41;100878.47;1757355;80;21002;-77
2021/11/08 03:21:58;;;;;;;26.30;18.65;;;;;;;9.02;83.57;100872.30;1757552;81;21213;-76
2021/11/08 03:27:22;;;;;;;21.42;17.30;;;;;;;9.07;83.80;100860.29;1757785;81;21505;-76
2021/11/08 03:29:44;;;;;;;23.60;17.75;;;;;;;9.09;83.92;100871.53;1757134;81;20956;-76
2021/11/08 03:32:15;;;;;;;23.22;16.55;;;;;;;9.12;84.02;100863.55;1757777;80;20931;-76
2021/11/08 03:34:46;;;;;;;23.00;17.55;;;;;;;9.16;84.10;100862.47;1757976;81;21121;-76
2021/11/08 03:37:09;;;;;;;20.27;15.75;;;;;;;9.21;84.15;100857.01;1757709;81;21374;-76
2021/11/08 03:39:36;;;;;;;22.07;17.00;;;;;;;9.26;84.16;100857.14;1758030;81;20899;-76
2021/11/08 03:42:03;;;;;;;19.90;15.50;;;;;;;9.30;84.23;100871.77;1757943;81;20892;-77
2021/11/08 03:44:31;;;;;;;21.52;18.15;;;;;;;9.34;84.29;100868.55;1757756;81;21460;-77
2021/11/08 03:46:58;;;;;;;23.00;17.65;;;;;;;9.37;84.33;100864.45;1757638;81;21165;-77
2021/11/08 03:49:25;;;;;;;17.40;14.73;;;;;;;9.38;84.31;100873.98;1750136;80;20885;-77
2021/11/08 03:51:52;;;;;;;20.20;15.70;;;;;;;9.41;84.32;100872.53;1750215;82;20987;-78
2021/11/08 03:54:19;;;;;;;18.98;16.25;;;;;;;9.43;84.40;100864.15;1750146;82;20864;-78
2021/11/08 03:56:46;;;;;;;23.12;15.53;;;;;;;9.44;84.43;100868.44;1750089;80;20852;-78
2021/11/08 04:02:03;;;;;;;18.95;16.30;;;;;;;9.54;84.67;100860.98;1798613;79;23104;-77
2021/11/08 04:04:31;;;;;;;21.07;16.48;;;;;;;9.48;84.77;100855.59;1758615;80;21386;-78
2021/11/08 04:06:57;;;;;;;19.25;15.38;;;;;;;9.51;84.87;100865.05;1758387;81;22057;-77
2021/11/08 04:09:24;;;;;;;16.70;14.18;;;;;;;9.53;85.04;100870.58;1758348;81;21318;-76
2021/11/08 04:11:54;;;;;;;19.75;15.25;;;;;;;9.54;85.14;100874.07;1758173;80;20924;-77
2021/11/08 04:14:21;;;;;;;19.40;14.47;;;;;;;9.55;85.27;100873.97;1758518;81;20932;-76
2021/11/08 04:16:49;;;;;;;19.45;14.83;;;;;;;9.57;85.34;100873.06;1758352;80;20979;-78
2021/11/08 04:19:17;;;;;;;19.98;15.30;;;;;;;9.58;85.43;100872.96;1758218;81;21219;-78
2021/11/08 04:21:45;;;;;;;18.40;15.15;;;;;;;9.60;85.48;100855.41;1758047;81;20908;-79
2021/11/08 04:24:13;;;;;;;19.90;16.37;;;;;;;9.62;85.63;100859.26;1758336;81;21338;-79
2021/11/08 04:26:40;;;;;;;15.75;14.05;;;;;;;9.64;85.74;100864.80;1758349;80;20936;-77
2021/11/08 04:29:07;;;;;;;17.20;13.65;;;;;;;9.66;85.76;100863.41;1758209;80;20988;-78
2021/11/08 04:31:37;;;;;;;18.67;15.23;;;;;;;9.67;85.88;100861.16;1758269;80;21553;-79
2021/11/08 04:34:39;;;;;;;17.48;15.20;;;;;;;9.67;85.92;100863.34;1758227;81;20916;-79
2021/11/08 04:39:38;;;;;;;15.38;12.93;;;;;;;9.72;86.08;100852.16;1758131;81;20943;-79
2021/11/08 05:25:07;;;;;;;18.02;13.95;;;;;;;10.16;86.96;100858.10;1758002;81;21804;-77
2021/11/08 05:30:13;;;;;;;16.10;13.40;;;;;;;10.20;86.97;100840.41;1757717;81;20892;-79
2021/11/08 05:32:43;;;;;;;15.75;13.83;;;;;;;10.22;86.98;100839.88;1757874;81;21449;-77
2021/11/08 05:35:12;;;;;;;15.85;12.65;;;;;;;10.25;87.00;100842.34;1758043;80;20935;-77
2021/11/08 05:37:42;;;;;;;17.98;14.35;;;;;;;10.29;86.99;100850.89;1757706;80;21216;-76
2021/11/08 05:40:13;;;;;;;16.85;13.95;;;;;;;10.32;86.99;100850.27;1757764;80;21432;-75
2021/11/08 05:42:40;;;;;;;20.82;15.75;;;;;;;10.34;86.99;100844.48;1758010;81;20952;-76
2021/11/08 05:45:09;;;;;;;15.50;13.70;;;;;;;10.37;87.03;100831.66;1757719;81;21463;-78
2021/11/08 05:47:37;;;;;;;16.15;13.20;;;;;;;10.39;87.03;100827.19;1758102;80;20986;-77
2021/11/08 05:50:06;;;;;;;14.90;12.63;;;;;;;10.41;87.07;100827.95;1757998;81;21123;-75
2021/11/08 05:52:33;;;;;;;17.52;12.82;;;;;;;10.44;87.15;100825.14;1758484;81;20917;-78
2021/11/08 05:55:00;;;;;;;15.05;13.13;;;;;;;10.47;87.12;100819.75;1758177;81;20960;-80
2021/11/08 06:49:29;;;;;;;18.37;12.90;;;;;;;11.28;86.96;100818.58;1744563;82;20976;-78
2021/11/08 06:51:57;;;;;;;15.63;12.43;;;;;;;11.32;86.97;100820.09;1744563;82;20901;-81
2021/11/08 06:54:26;;;;;;;14.65;11.63;;;;;;;11.36;86.89;100813.69;1744507;81;20912;-80
2021/11/08 06:56:57;;;;;;;14.35;12.73;;;;;;;11.40;86.78;100808.63;1745059;82;21339;-80
2021/11/08 06:59:24;;;;;;;14.95;12.13;;;;;;;11.44;86.81;100807.52;1744705;81;20885;-79
2021/11/08 07:01:50;;;;;;;14.98;12.90;;;;;;;11.50;86.73;100809.78;1747217;81;21407;-80
2021/11/08 07:04:17;;;;;;;17.55;12.28;;;;;;;11.54;86.63;100813.08;1758585;81;21014;-80
2021/11/08 07:06:44;;;;;;;14.05;12.37;;;;;;;11.56;86.57;100821.23;1758024;81;20880;-78
2021/11/08 07:09:12;;;;;;;13.93;11.30;;;;;;;11.60;86.50;100832.38;1758025;80;21144;-77
2021/11/08 07:11:40;;;;;;;16.12;11.83;;;;;;;11.61;86.53;100837.55;1758154;81;20849;-78
2021/11/08 07:14:08;;;;;;;17.02;13.18;;;;;;;11.64;86.50;100848.81;1758006;81;20932;-81
2021/11/08 07:16:36;;;;;;;13.90;11.73;;;;;;;11.65;86.55;100844.78;1758252;80;20916;-84
2021/11/08 07:19:03;;;;;;;15.83;11.90;;;;;;;11.67;86.57;100848.61;1758283;80;20884;-84
2021/11/08 07:21:29;;;;;;;18.40;14.18;;;;;;;11.67;86.57;100833.72;1758532;81;21096;-84
2021/11/08 07:23:56;;;;;;;19.50;14.73;;;;;;;11.69;86.55;100844.95;1758080;81;21003;-83
2021/11/08 07:26:23;;;;;;;16.23;12.23;;;;;;;11.72;86.52;100843.47;1758129;81;20899;-82
2021/11/08 07:28:50;;;;;;;13.98;12.00;;;;;;;11.73;86.53;100849.56;1757684;80;20932;-82
2021/11/08 07:31:17;;;;;;;15.78;11.68;;;;;;;11.75;86.58;100843.27;1758175;80;21595;-79
2021/11/08 07:33:44;;;;;;;14.40;11.93;;;;;;;11.76;86.51;100842.34;1757817;81;21157;-81
2021/11/08 07:36:11;;;;;;;17.65;13.78;;;;;;;11.76;86.54;100841.03;1758113;80;20987;-82
2021/11/08 07:38:39;;;;;;;14.05;12.07;;;;;;;11.76;86.60;100836.22;1757964;81;20912;-84
2021/11/08 07:41:09;;;;;;;14.10;11.55;;;;;;;11.77;86.65;100824.31;1758144;81;20999;-83
2021/11/08 07:43:38;;;;;;;14.55;10.28;;;;;;;11.77;86.70;100830.05;1757967;81;21128;-79
2021/11/08 07:46:06;;;;;;;13.45;11.00;;;;;;;11.79;86.79;100822.91;1758295;81;21122;-80
2021/11/08 07:48:32;;;;;;;14.85;11.85;;;;;;;11.82;86.83;100824.03;1757781;81;20931;-80
2021/11/08 07:50:59;;;;;;;15.00;10.95;;;;;;;11.86;86.85;100832.58;1758095;81;21362;-79
2021/11/08 07:53:26;;;;;;;14.23;11.05;;;;;;;11.88;86.82;100833.36;1757767;80;21038;-78
2021/11/08 07:55:54;;;;;;;16.42;12.60;;;;;;;11.92;86.86;100835.70;1757810;81;20854;-79
2021/11/08 07:58:20;;;;;;;16.00;11.63;;;;;;;11.95;86.81;100847.32;1757855;81;21104;-77
2021/11/08 08:00:47;;;;;;;13.43;10.95;;;;;;;11.98;86.73;100854.16;1758010;81;21438;-77
2021/11/08 08:03:16;;;;;;;13.25;10.10;;;;;;;11.98;86.70;100839.27;1757619;81;20896;-79
2021/11/08 08:05:43;;;;;;;13.55;11.35;;;;;;;11.98;86.74;100840.58;1757821;80;20865;-76
2021/11/08 08:08:10;;;;;;;12.03;9.53;;;;;;;11.99;86.78;100846.67;1757951;81;20924;-77
2021/11/08 08:10:37;;;;;;;14.47;12.37;;;;;;;12.00;86.84;100846.55;1757675;81;22151;-78
2021/11/08 08:13:05;;;;;;;14.05;12.53;;;;;;;12.05;86.86;100840.17;1757806;81;20919;-77
2021/11/08 08:15:32;;;;;;;13.70;10.78;;;;;;;12.06;86.79;100838.77;1758092;81;20873;-79
2021/11/08 08:18:00;;;;;;;19.32;12.70;;;;;;;12.08;86.83;100842.16;1757894;80;20980;-78
2021/11/08 08:20:30;;;;;;;12.93;10.95;;;;;;;12.12;86.87;100846.76;1757985;81;20908;-79
2021/11/08 08:22:57;;;;;;;14.87;11.45;;;;;;;12.13;86.80;100840.55;1757729;80;21125;-76
2021/11/08 08:25:23;;;;;;;11.65;9.98;;;;;;;12.17;86.77;100843.36;1757964;81;20975;-77
2021/11/08 08:27:51;;;;;;;15.32;11.05;;;;;;;12.19;86.71;100839.69;1757695;81;21493;-79
2021/11/08 08:30:17;;;;;;;13.08;11.68;;;;;;;12.21;86.69;100840.91;1758007;80;20927;-78
2021/11/08 08:32:45;;;;;;;11.05;9.88;;;;;;;12.22;86.70;100839.95;1757848;81;20924;-78
2021/11/08 08:35:12;;;;;;;13.65;9.48;;;;;;;12.22;86.73;100833.39;1758096;81;21973;-79
2021/11/08 08:37:39;;;;;;;12.20;10.70;;;;;;;12.25;86.81;100839.78;1757959;80;20963;-80
2021/11/08 08:40:08;;;;;;;14.25;11.40;;;;;;;12.26;86.92;100825.69;1758008;81;20980;-84
2021/11/08 08:42:34;;;;;;;13.55;12.15;;;;;;;12.29;86.91;100813.64;1758038;81;20888;-78
2021/11/08 08:45:02;;;;;;;16.02;11.45;;;;;;;12.33;86.88;100824.82;1758457;81;21409;-83
2021/11/08 08:47:30;;;;;;;10.95;9.75;;;;;;;12.36;86.88;100815.41;1757998;81;21385;-80
2021/11/08 08:49:57;;;;;;;12.50;10.32;;;;;;;12.39;86.85;100824.44;1758196;80;21030;-77
2021/11/08 08:52:24;;;;;;;10.90;9.35;;;;;;;12.43;86.83;100820.67;1757861;81;21709;-76
2021/11/08 08:54:52;;;;;;;11.05;9.85;;;;;;;12.47;86.82;100814.23;1758308;81;20928;-78
2021/11/08 08:57:19;;;;;;;11.08;8.88;;;;;;;12.50;86.81;100805.33;1757914;81;21011;-76
2021/11/08 08:59:47;;;;;;;11.53;9.15;;;;;;;12.55;86.80;100800.13;1758126;81;21760;-77
2021/11/08 09:02:14;;;;;;;13.20;11.05;;;;;;;12.58;86.66;100798.63;1757996;80;20923;-81
2021/11/08 09:04:41;;;;;;;13.28;10.60;;;;;;;12.62;86.53;100800.09;1757809;81;21359;-80
2021/11/08 09:07:09;;;;;;;16.15;11.22;;;;;;;12.64;86.40;100807.89;1757898;81;20975;-81
2021/11/08 09:09:37;;;;;;;15.68;11.03;;;;;;;12.68;86.35;100809.38;1758170;80;20920;-82
2021/11/08 09:12:07;;;;;;;14.98;11.48;;;;;;;12.71;86.15;100819.69;1757913;81;20904;-81
2021/11/08 09:14:35;;;;;;;30.32;21.95;;;;;;;12.72;86.15;100821.40;1758247;81;20892;-80
2021/11/08 09:17:03;;;;;;;19.82;15.08;;;;;;;12.77;86.10;100819.30;1758049;81;21339;-80
2021/11/08 09:19:31;;;;;;;13.10;9.83;;;;;;;12.78;86.00;100821.00;1758009;81;21006;-79
2021/11/08 09:21:58;;;;;;;14.90;12.37;;;;;;;12.80;85.79;100812.98;1758089;81;20990;-78
2021/11/08 09:24:24;;;;;;;17.35;12.90;;;;;;;12.79;85.61;100811.31;1757777;81;21519;-79
2021/11/08 09:26:51;;;;;;;25.25;17.07;;;;;;;12.80;85.46;100814.30;1757755;81;21477;-80
2021/11/08 09:29:19;;;;;;;22.93;14.87;;;;;;;12.81;85.34;100810.73;1757123;81;21014;-79
2021/11/08 09:31:46;;;;;;;21.05;15.28;;;;;;;12.83;85.23;100799.64;1757526;80;21517;-79
2021/11/08 09:34:18;;;;;;;14.35;11.18;;;;;;;12.84;85.00;100792.94;1757074;80;20934;-79
2021/11/08 09:36:44;;;;;;;13.85;10.78;;;;;;;12.89;84.90;100804.95;1757439;80;21150;-79
2021/11/08 09:39:24;;;;;;;14.80;9.98;;;;;;;12.89;84.84;100800.52;1757448;81;21430;-80
2021/11/08 09:41:49;;;;;;;14.93;11.05;;;;;;;12.92;84.70;100796.39;1757749;81;20952;-78
2021/11/08 09:44:16;;;;;;;13.32;10.88;;;;;;;12.96;84.64;100792.61;1757773;80;21019;-79
2021/11/08 09:46:43;;;;;;;17.25;10.75;;;;;;;12.99;84.15;100804.23;1758038;81;21385;-79
2021/11/08 09:49:10;;;;;;;11.63;9.28;;;;;;;13.01;84.06;100804.14;1757767;81;21496;-80
2021/11/08 09:51:42;;;;;;;12.73;9.30;;;;;;;13.03;83.84;100812.30;1757997;81;20905;-80
2021/11/08 09:54:10;;;;;;;11.35;9.60;;;;;;;13.05;83.67;100816.16;1757646;81;20964;-80
2021/11/08 09:56:41;;;;;;;11.75;9.43;;;;;;;13.04;83.40;100815.77;1757433;80;21422;-83
2021/11/08 09:59:09;;;;;;;11.33;9.45;;;;;;;13.02;83.35;100811.91;1757364;80;20947;-79
2021/11/08 10:01:40;;;;;;;12.37;9.05;;;;;;;13.04;83.31;100810.50;1757291;81;21133;-79
2021/11/08 10:04:08;;;;;;;13.90;9.73;;;;;;;13.03;83.13;100792.55;1757383;81;21478;-83
2021/11/08 10:06:37;;;;;;;14.65;9.73;;;;;;;13.04;83.16;100803.92;1757810;81;20952;-83
2021/11/08 10:09:09;;;;;;;14.98;10.82;;;;;;;13.04;83.13;100803.44;1757928;81;20924;-81
2021/11/08 10:11:37;;;;;;;13.83;9.65;;;;;;;13.05;83.20;100799.05;1758193;81;20888;-86
2021/11/08 10:14:05;;;;;;;13.45;9.53;;;;;;;13.06;83.07;100791.50;1759142;81;21965;-85
2021/11/08 10:16:36;;;;;;;14.80;10.10;;;;;;;13.02;82.96;100802.70;1757750;80;20881;-87
2021/11/08 10:19:08;;;;;;;13.83;9.45;;;;;;;13.03;82.97;100800.94;1758286;81;20916;-90
2021/11/08 10:21:44;;;;;;;12.07;9.03;;;;;;;13.04;83.01;100807.88;1757645;81;21017;-89
2021/11/08 10:24:16;;;;;;;12.00;10.10;;;;;;;13.08;82.97;100813.30;1758179;81;20956;-88
2021/11/08 10:26:43;;;;;;;10.08;8.30;;;;;;;13.12;82.93;100806.06;1758421;81;21145;-86
2021/11/08 10:29:18;;;;;;;10.13;8.43;;;;;;;13.14;82.78;100798.86;1757889;81;20885;-83
2021/11/08 10:31:48;;;;;;;9.33;7.50;;;;;;;13.16;82.66;100789.08;1757531;81;20920;-85
2021/11/08 10:34:15;;;;;;;13.72;8.83;;;;;;;13.16;82.58;100789.08;1757192;80;20893;-82
2021/11/08 10:36:42;;;;;;;11.38;9.23;;;;;;;13.17;82.76;100792.93;1758256;81;21388;-86
2021/11/08 10:39:10;;;;;;;10.48;7.37;;;;;;;13.21;82.65;100801.48;1758590;81;21073;-85
2021/11/08 10:41:42;;;;;;;12.73;8.93;;;;;;;13.23;82.50;100806.17;1758288;80;21480;-87
2021/11/08 10:44:16;;;;;;;12.37;8.15;;;;;;;13.23;82.44;100799.58;1722446;83;20947;-90
2021/11/08 10:46:47;;;;;;;13.25;9.75;;;;;;;13.26;82.42;100799.36;1723331;83;20936;-88
2021/11/08 10:49:19;;;;;;;13.95;8.45;;;;;;;13.29;82.32;100797.02;1724036;83;20931;-88
2021/11/08 10:51:50;;;;;;;13.83;8.65;;;;;;;13.29;82.21;100803.13;1723436;83;21151;-90
2021/11/08 10:54:22;;;;;;;13.20;9.00;;;;;;;13.30;82.25;100810.09;1723133;83;21417;-87
2021/11/08 10:57:08;;;;;;;12.55;10.53;;;;;;;13.35;82.18;100809.78;1721883;83;20911;-86
2021/11/08 10:59:43;;;;;;;15.78;9.98;;;;;;;13.38;81.98;100809.55;1703726;84;21113;-89
2021/11/08 11:02:13;;;;;;;13.93;11.65;;;;;;;13.40;81.74;100803.70;1703777;84;20961;-89
2021/11/08 11:04:45;;;;;;;15.03;12.37;;;;;;;13.42;81.58;100794.75;1702700;84;21082;-88
2021/11/08 11:07:22;;;;;;;19.50;14.15;;;;;;;13.44;81.42;100795.97;1701302;84;20862;-89
2021/11/08 11:09:50;;;;;;;20.05;16.35;;;;;;;13.48;81.40;100805.34;1702353;84;20941;-89
2021/11/08 11:12:25;;;;;;;17.00;13.48;;;;;;;13.50;81.39;100803.45;1702001;84;20965;-89
2021/11/08 11:15:00;;;;;;;17.15;14.05;;;;;;;13.53;81.42;100798.44;1701704;84;20941;-85
2021/11/08 11:17:31;;;;;;;20.25;16.60;;;;;;;13.56;81.30;100804.80;1701667;84;21145;-84
2021/11/08 11:20:16;;;;;;;19.02;15.38;;;;;;;13.58;81.15;100802.42;1707716;84;21482;-82
2021/11/08 11:22:55;;;;;;;20.70;14.75;;;;;;;13.57;80.60;100799.92;1709152;83;20886;-81
2021/11/08 11:25:17;;;;;;;22.42;16.45;;;;;;;13.49;80.48;100783.31;1707392;84;21015;-83
2021/11/08 11:27:48;;;;;;;20.55;15.40;;;;;;;13.42;80.51;100796.06;1708511;83;20957;-83
2021/11/08 11:30:24;;;;;;;25.62;15.60;;;;;;;13.42;80.47;100797.38;1708374;84;21149;-84
2021/11/08 11:33:14;;;;;;;21.75;16.75;;;;;;;13.40;80.54;100800.59;1708702;83;20905;-82
2021/11/08 11:36:05;;;;;;;21.55;17.02;;;;;;;13.40;80.54;100808.50;1708704;83;21094;-86
2021/11/08 11:41:15;;;;;;;19.77;14.75;;;;;;;13.45;80.44;100810.36;1871368;76;22653;-83
2021/11/08 11:43:47;;;;;;;25.50;17.30;;;;;;;13.37;80.46;100813.98;1827682;78;20985;-84
2021/11/08 11:46:22;;;;;;;20.92;14.38;;;;;;;13.38;80.64;100830.14;1828597;78;21081;-82
2021/11/08 11:48:51;;;;;;;18.98;13.78;;;;;;;13.41;80.50;100826.00;1807460;78;21414;-86
2021/11/08 11:51:27;;;;;;;20.15;13.58;;;;;;;13.43;80.31;100824.59;1827686;78;20947;-80
2021/11/08 11:53:56;;;;;;;21.42;14.07;;;;;;;13.43;80.22;100822.80;1827520;78;20930;-81
2021/11/08 11:56:24;;;;;;;23.80;14.78;;;;;;;13.46;80.09;100827.84;1827863;77;21444;-81
2021/11/08 11:58:51;;;;;;;20.55;14.73;;;;;;;13.48;79.89;100831.70;1827626;78;21089;-83
2021/11/08 12:01:22;;;;;;;18.65;13.95;;;;;;;13.50;79.77;100835.55;1827984;77;20990;-85
2021/11/08 12:03:51;;;;;;;17.37;13.20;;;;;;;13.50;79.63;100834.23;1827647;77;21417;-81
2021/11/08 12:06:29;;;;;;;17.00;13.05;;;;;;;13.52;79.55;100825.27;1827524;78;21028;-82
2021/11/08 12:08:58;;;;;;;14.25;11.90;;;;;;;13.56;79.44;100835.11;1826757;77;20954;-82
2021/11/08 12:11:28;;;;;;;17.92;11.95;;;;;;;13.58;79.05;100838.48;1827808;78;21987;-82
2021/11/08 12:13:59;;;;;;;16.93;13.03;;;;;;;13.58;78.94;100822.19;1827371;78;21393;-80
2021/11/08 12:16:29;;;;;;;17.65;12.70;;;;;;;13.61;78.87;100827.27;1827043;77;21434;-82
2021/11/08 12:18:59;;;;;;;18.07;12.95;;;;;;;13.64;78.68;100845.97;1827770;78;20864;-77
2021/11/08 12:21:35;;;;;;;16.90;11.97;;;;;;;13.63;78.56;100843.81;1827729;77;20954;-76
2021/11/08 12:24:16;;;;;;;18.67;12.40;;;;;;;13.63;78.44;100848.25;1827583;78;21152;-77
2021/11/08 12:26:43;;;;;;;17.73;12.55;;;;;;;13.63;78.49;100844.30;1827582;77;20900;-75
2021/11/08 12:29:16;;;;;;;17.77;12.85;;;;;;;13.62;78.55;100813.13;1827807;77;21457;-76
2021/11/08 12:31:43;;;;;;;17.90;13.32;;;;;;;13.61;78.46;100802.23;1827350;77;20955;-77
2021/11/08 12:34:14;;;;;;;19.17;13.55;;;;;;;13.59;78.32;100827.84;1827939;78;20853;-75
2021/11/08 12:36:41;;;;;;;16.20;14.40;;;;;;;13.56;78.32;100836.42;1827785;78;21102;-75
2021/11/08 12:39:12;;;;;;;18.02;14.98;;;;;;;13.52;78.37;100827.91;1827473;78;21622;-78
2021/11/08 12:41:48;;;;;;;20.00;14.63;;;;;;;13.51;78.36;100830.16;1827260;78;20888;-78
2021/11/08 12:44:18;;;;;;;18.27;13.38;;;;;;;13.49;78.15;100820.19;1827157;78;26530;-79
2021/11/08 12:46:57;;;;;;;21.52;15.40;;;;;;;13.47;78.15;100816.81;1826963;78;20899;-77
2021/11/08 12:49:35;;;;;;;15.72;13.03;;;;;;;13.43;78.24;100832.50;1826789;77;21191;-84
2021/11/08 12:52:16;;;;;;;22.73;17.02;;;;;;;13.40;78.38;100834.84;1827280;78;21455;-81
2021/11/08 12:54:55;;;;;;;20.68;15.25;;;;;;;13.40;78.49;100824.30;1826699;77;22382;-80
2021/11/08 12:57:24;;;;;;;18.17;15.05;;;;;;;13.41;78.51;100819.42;1827070;77;20940;-81
2021/11/08 13:00:02;;;;;;;19.65;15.83;;;;;;;13.41;78.51;100816.78;1826441;78;20899;-81
2021/11/08 13:02:40;;;;;;;23.92;16.10;;;;;;;13.43;78.55;100817.52;1826724;77;21775;-83
2021/11/08 13:05:11;;;;;;;23.95;16.23;;;;;;;13.47;78.52;100808.91;1826740;78;20998;-81
2021/11/08 13:07:40;;;;;;;22.62;18.15;;;;;;;13.52;78.42;100826.59;1826718;78;20915;-80
2021/11/08 13:10:22;;;;;;;26.77;19.27;;;;;;;13.55;78.34;100841.34;1826576;78;20915;-80
2021/11/08 13:12:50;;;;;;;24.65;19.12;;;;;;;13.54;78.11;100858.08;1822222;78;21024;-81
2021/11/08 13:15:23;;;;;;;28.77;20.35;;;;;;;13.51;78.02;100846.45;1827048;77;21172;-80